This is the latest recevied weather packets stored in our database for station/object LRBM. If no packets are shown the sender has not sent any weather packets the latest 10 day(s).
| Time | Temp. | Humidity | Pressure | Rain* | Wind** | Luminosity | Snow |
|---|---|---|---|---|---|---|---|
| 1777509216 | 3.89° C | 70% | 1024 hPa | - | - | - | - |
| 1777508315 | 3.89° C | 70% | 1024 hPa | - | - | - | - |
| 1777507416 | 3.89° C | 70% | 1024 hPa | - | - | - | - |
| 1777506512 | 3.89° C | 65% | 1024 hPa | - | - | - | - |
| 1777505613 | 3.89° C | 65% | 1024 hPa | - | - | - | - |
| 1777504715 | 3.89° C | 65% | 1023 hPa | - | - | - | - |
| 1777503815 | 3.89° C | 65% | 1023 hPa | - | - | - | - |
| 1777502916 | 3.89° C | 65% | 1023 hPa | - | - | - | - |
| 1777502016 | 3.89° C | 65% | 1023 hPa | - | - | - | - |
| 1777501116 | 3.89° C | 61% | 1023 hPa | - | - | - | - |
| 1777500216 | 3.89° C | 61% | 1023 hPa | - | - | - | - |
| 1777499315 | 3.89° C | 61% | 1023 hPa | - | - | - | - |
| 1777498415 | 3.89° C | 61% | 1023 hPa | - | - | - | - |
| 1777497516 | 5° C | 57% | 1022 hPa | - | - | - | - |
| 1777496615 | 5° C | 57% | 1022 hPa | - | - | - | - |
| 1777495716 | 6.11° C | 49% | 1022 hPa | - | - | - | - |
| 1777494816 | 6.11° C | 49% | 1022 hPa | - | - | - | - |
| 1777493915 | 7.22° C | 42% | 1022 hPa | - | - | - | - |
| 1777493015 | 7.22° C | 42% | 1022 hPa | - | - | - | - |
| 1777492116 | 7.78° C | 40% | 1021 hPa | - | - | - | - |
| 1777491215 | 7.78° C | 40% | 1021 hPa | - | - | - | - |
| 1777490315 | 10° C | 35% | 1021 hPa | - | - | - | - |
| 1777489416 | 10° C | 35% | 1021 hPa | - | - | - | - |
| 1777488517 | 10° C | 35% | 1021 hPa | - | - | - | - |
| 1777487615 | 10° C | 35% | 1021 hPa | - | - | - | - |
* Rain since midnight (hover to see other rain measurements)
** Current wind speed in m/s (hover to see current wind gust speed)